sensor_id;sensor_type;location;lat;lon;timestamp;pressure;altitude;pressure_sealevel;temperature;humidity
73267;BME280;61495;53.400;7.608;2023-04-01T00:01:43;99277.09;;;9.61;100.00
73267;BME280;61495;53.400;7.608;2023-04-01T00:04:09;99272.44;;;9.56;100.00
73267;BME280;61495;53.400;7.608;2023-04-01T00:06:34;99278.59;;;9.57;100.00
73267;BME280;61495;53.400;7.608;2023-04-01T00:09:00;99282.91;;;9.58;100.00
73267;BME280;61495;53.400;7.608;2023-04-01T00:11:25;99279.41;;;9.57;100.00
73267;BME280;61495;53.400;7.608;2023-04-01T00:13:52;99276.75;;;9.57;100.00
73267;BME280;61495;53.400;7.608;2023-04-01T00:16:18;99281.88;;;9.59;100.00
73267;BME280;61495;53.400;7.608;2023-04-01T00:18:43;99273.25;;;9.57;100.00
73267;BME280;61495;53.400;7.608;2023-04-01T00:21:09;99274.88;;;9.58;100.00
73267;BME280;61495;53.400;7.608;2023-04-01T00:23:34;99282.91;;;9.58;100.00
73267;BME280;61495;53.400;7.608;2023-04-01T00:26:01;99273.25;;;9.57;100.00
73267;BME280;61495;53.400;7.608;2023-04-01T00:28:27;99281.06;;;9.58;100.00
73267;BME280;61495;53.400;7.608;2023-04-01T00:30:53;99276.19;;;9.55;100.00
73267;BME280;61495;53.400;7.608;2023-04-01T00:33:19;99273.25;;;9.57;100.00
73267;BME280;61495;53.400;7.608;2023-04-01T00:35:45;99282.91;;;9.58;100.00
73267;BME280;61495;53.400;7.608;2023-04-01T00:38:11;99276.19;;;9.55;100.00
73267;BME280;61495;53.400;7.608;2023-04-01T00:40:41;99280.22;;;9.58;100.00
73267;BME280;61495;53.400;7.608;2023-04-01T00:43:16;99280.22;;;9.58;100.00
73267;BME280;61495;53.400;7.608;2023-04-01T00:45:46;99278.59;;;9.57;100.00
73267;BME280;61495;53.400;7.608;2023-04-01T00:48:17;99279.41;;;9.57;100.00
73267;BME280;61495;53.400;7.608;2023-04-01T00:50:58;99274.88;;;9.58;100.00
73267;BME280;61495;53.400;7.608;2023-04-01T00:53:25;99282.91;;;9.58;100.00
73267;BME280;61495;53.400;7.608;2023-04-01T00:56:02;99277.78;;;9.56;100.00
73267;BME280;61495;53.400;7.608;2023-04-01T00:58:31;99280.22;;;9.58;100.00
73267;BME280;61495;53.400;7.608;2023-04-01T01:00:59;99276.75;;;9.57;100.00
73267;BME280;61495;53.400;7.608;2023-04-01T01:03:25;99276.53;;;9.59;100.00
73267;BME280;61495;53.400;7.608;2023-04-01T01:09:12;99279.91;;;9.54;100.00
73267;BME280;61495;53.400;7.608;2023-04-01T01:11:48;99281.53;;;9.55;100.00
73267;BME280;61495;53.400;7.608;2023-04-01T01:16:54;99286.88;;;9.55;100.00
73267;BME280;61495;53.400;7.608;2023-04-01T01:28:01;99271.53;;;9.50;100.00
73267;BME280;61495;53.400;7.608;2023-04-01T01:31:08;99284.19;;;9.55;100.00
73267;BME280;61495;53.400;7.608;2023-04-01T01:36:42;99277.47;;;9.53;100.00
73267;BME280;61495;53.400;7.608;2023-04-01T01:39:12;99279.06;;;9.54;100.00
73267;BME280;61495;53.400;7.608;2023-04-01T01:41:39;99277.47;;;9.53;100.00
73267;BME280;61495;53.400;7.608;2023-04-01T01:44:08;99281.75;;;9.54;100.00
73267;BME280;61495;53.400;7.608;2023-04-01T01:46:36;99285.50;;;9.53;100.00
73267;BME280;61495;53.400;7.608;2023-04-01T01:49:03;99282.81;;;9.53;100.00
73267;BME280;61495;53.400;7.608;2023-04-01T01:51:30;99278.78;;;9.50;100.00
73267;BME280;61495;53.400;7.608;2023-04-01T01:53:55;99285.50;;;9.53;100.00
73267;BME280;61495;53.400;7.608;2023-04-01T01:56:23;99285.50;;;9.53;100.00
73267;BME280;61495;53.400;7.608;2023-04-01T01:58:56;99288.16;;;9.53;100.00
73267;BME280;61495;53.400;7.608;2023-04-01T02:01:25;99288.16;;;9.53;100.00
73267;BME280;61495;53.400;7.608;2023-04-01T02:03:52;99287.00;;;9.48;100.00
73267;BME280;61495;53.400;7.608;2023-04-01T02:06:21;99295.59;;;9.50;100.00
73267;BME280;61495;53.400;7.608;2023-04-01T02:08:51;99289.22;;;9.52;100.00
73267;BME280;61495;53.400;7.608;2023-04-01T02:11:31;99291.53;;;9.48;100.00
73267;BME280;61495;53.400;7.608;2023-04-01T02:14:11;99294.00;;;9.49;100.00
73267;BME280;61495;53.400;7.608;2023-04-01T02:16:45;99304.69;;;9.49;100.00
73267;BME280;61495;53.400;7.608;2023-04-01T02:19:16;99298.53;;;9.49;100.00
73267;BME280;61495;53.400;7.608;2023-04-01T02:21:51;99301.41;;;9.47;100.00
73267;BME280;61495;53.400;7.608;2023-04-01T02:24:19;99303.03;;;9.48;100.00
73267;BME280;61495;53.400;7.608;2023-04-01T02:26:48;99306.28;;;9.50;100.00
73267;BME280;61495;53.400;7.608;2023-04-01T02:29:16;99310.03;;;9.49;100.00
73267;BME280;61495;53.400;7.608;2023-04-01T02:31:43;99306.28;;;9.50;100.00
73267;BME280;61495;53.400;7.608;2023-04-01T02:34:09;99310.59;;;9.52;100.00
73267;BME280;61495;53.400;7.608;2023-04-01T02:36:35;99306.06;;;9.52;100.00
73267;BME280;61495;53.400;7.608;2023-04-01T02:39:01;99311.41;;;9.52;100.00
73267;BME280;61495;53.400;7.608;2023-04-01T02:41:29;99307.91;;;9.52;100.00
73267;BME280;61495;53.400;7.608;2023-04-01T02:43:55;99311.63;;;9.50;100.00
73267;BME280;61495;53.400;7.608;2023-04-01T02:46:22;99310.03;;;9.49;100.00
73267;BME280;61495;53.400;7.608;2023-04-01T02:48:47;99318.63;;;9.52;100.00
73267;BME280;61495;53.400;7.608;2023-04-01T02:51:13;99316.97;;;9.50;100.00
73267;BME280;61495;53.400;7.608;2023-04-01T02:53:38;99322.31;;;9.50;100.00
73267;BME280;61495;53.400;7.608;2023-04-01T02:56:04;99314.22;;;9.45;100.00
73267;BME280;61495;53.400;7.608;2023-04-01T02:58:29;99322.31;;;9.50;100.00
73267;BME280;61495;53.400;7.608;2023-04-01T03:00:55;99325.81;;;9.51;100.00
73267;BME280;61495;53.400;7.608;2023-04-01T03:03:20;99317.44;;;9.47;100.00
73267;BME280;61495;53.400;7.608;2023-04-01T03:05:46;99325.00;;;9.50;100.00
73267;BME280;61495;53.400;7.608;2023-04-01T03:08:11;99328.28;;;9.53;100.00
73267;BME280;61495;53.400;7.608;2023-04-01T03:10:37;99332.22;;;9.50;100.00
73267;BME280;61495;53.400;7.608;2023-04-01T03:13:02;99329.56;;;9.50;100.00
73267;BME280;61495;53.400;7.608;2023-04-01T03:15:28;99334.66;;;9.52;100.00
73267;BME280;61495;53.400;7.608;2023-04-01T03:17:53;99328.50;;;9.51;100.00
73267;BME280;61495;53.400;7.608;2023-04-01T03:20:18;99335.13;;;9.48;100.00
73267;BME280;61495;53.400;7.608;2023-04-01T03:22:45;99334.66;;;9.52;100.00
73267;BME280;61495;53.400;7.608;2023-04-01T03:25:11;99336.50;;;9.51;100.00
73267;BME280;61495;53.400;7.608;2023-04-01T03:27:36;99337.56;;;9.50;100.00
73267;BME280;61495;53.400;7.608;2023-04-01T03:30:03;99341.03;;;9.50;100.00
73267;BME280;61495;53.400;7.608;2023-04-01T03:32:29;99344.53;;;9.51;100.00
73267;BME280;61495;53.400;7.608;2023-04-01T03:34:54;99351.72;;;9.50;100.00
73267;BME280;61495;53.400;7.608;2023-04-01T03:37:19;99345.34;;;9.52;100.00
73267;BME280;61495;53.400;7.608;2023-04-01T03:39:45;99345.34;;;9.52;100.00
73267;BME280;61495;53.400;7.608;2023-04-01T03:42:11;99348.28;;;9.50;100.00
73267;BME280;61495;53.400;7.608;2023-04-01T03:44:37;99340.00;;;9.52;100.00
73267;BME280;61495;53.400;7.608;2023-04-01T03:47:02;99346.38;;;9.50;100.00
73267;BME280;61495;53.400;7.608;2023-04-01T03:49:27;99350.69;;;9.52;100.00
73267;BME280;61495;53.400;7.608;2023-04-01T03:51:53;99352.56;;;9.51;100.00
73267;BME280;61495;53.400;7.608;2023-04-01T03:54:18;99355.22;;;9.51;100.00
73267;BME280;61495;53.400;7.608;2023-04-01T03:56:45;99359.75;;;9.50;100.00
73267;BME280;61495;53.400;7.608;2023-04-01T03:59:11;99354.41;;;9.50;100.00
73267;BME280;61495;53.400;7.608;2023-04-01T04:01:37;99362.44;;;9.50;100.00
73267;BME280;61495;53.400;7.608;2023-04-01T04:04:02;99363.50;;;9.49;100.00
73267;BME280;61495;53.400;7.608;2023-04-01T04:06:28;99366.38;;;9.48;100.00
73267;BME280;61495;53.400;7.608;2023-04-01T04:08:54;99365.56;;;9.47;100.00
73267;BME280;61495;53.400;7.608;2023-04-01T04:11:20;99366.63;;;9.46;100.00
73267;BME280;61495;53.400;7.608;2023-04-01T04:13:46;99375.78;;;9.50;100.00
73267;BME280;61495;53.400;7.608;2023-04-01T04:16:13;99371.50;;;9.49;100.00
73267;BME280;61495;53.400;7.608;2023-04-01T04:18:39;99372.56;;;9.48;100.00
73267;BME280;61495;53.400;7.608;2023-04-01T04:21:04;99374.19;;;9.49;100.00
73267;BME280;61495;53.400;7.608;2023-04-01T04:23:30;99379.53;;;9.49;100.00
73267;BME280;61495;53.400;7.608;2023-04-01T04:26:06;99380.09;;;9.52;100.00
73267;BME280;61495;53.400;7.608;2023-04-01T04:28:32;99381.13;;;9.50;100.00
73267;BME280;61495;53.400;7.608;2023-04-01T04:30:58;99384.88;;;9.49;100.00
73267;BME280;61495;53.400;7.608;2023-04-01T04:33:24;99383.81;;;9.50;100.00
73267;BME280;61495;53.400;7.608;2023-04-01T04:35:50;99394.50;;;9.50;100.00
73267;BME280;61495;53.400;7.608;2023-04-01T04:38:16;99394.50;;;9.50;100.00
73267;BME280;61495;53.400;7.608;2023-04-01T04:40:42;99398.00;;;9.51;100.00
73267;BME280;61495;53.400;7.608;2023-04-01T04:43:12;99401.75;;;9.50;100.00
73267;BME280;61495;53.400;7.608;2023-04-01T04:45:38;99401.50;;;9.52;100.00
73267;BME280;61495;53.400;7.608;2023-04-01T04:48:03;99400.91;;;9.49;100.00
73267;BME280;61495;53.400;7.608;2023-04-01T04:50:29;99404.63;;;9.48;100.00
73267;BME280;61495;53.400;7.608;2023-04-01T04:52:54;99408.94;;;9.49;100.00
73267;BME280;61495;53.400;7.608;2023-04-01T04:55:20;99412.44;;;9.50;100.00
73267;BME280;61495;53.400;7.608;2023-04-01T04:57:46;99412.66;;;9.48;100.00
73267;BME280;61495;53.400;7.608;2023-04-01T05:00:11;99418.00;;;9.48;100.00
73267;BME280;61495;53.400;7.608;2023-04-01T05:02:37;99414.75;;;9.46;100.00
73267;BME280;61495;53.400;7.608;2023-04-01T05:05:02;99411.63;;;9.49;100.00
73267;BME280;61495;53.400;7.608;2023-04-01T05:07:29;99410.53;;;9.50;100.00
73267;BME280;61495;53.400;7.608;2023-04-01T05:09:54;99421.25;;;9.50;100.00
73267;BME280;61495;53.400;7.608;2023-04-01T05:12:20;99427.66;;;9.49;100.00
73267;BME280;61495;53.400;7.608;2023-04-01T05:14:45;99422.31;;;9.49;100.00
73267;BME280;61495;53.400;7.608;2023-04-01T05:17:11;99429.50;;;9.49;100.00
73267;BME280;61495;53.400;7.608;2023-04-01T05:19:38;99438.34;;;9.49;100.00
73267;BME280;61495;53.400;7.608;2023-04-01T05:22:03;99442.88;;;9.49;100.00
73267;BME280;61495;53.400;7.608;2023-04-01T05:24:30;99441.03;;;9.49;100.00
73267;BME280;61495;53.400;7.608;2023-04-01T05:26:55;99443.69;;;9.49;100.00
73267;BME280;61495;53.400;7.608;2023-04-01T05:29:21;99442.88;;;9.49;100.00
73267;BME280;61495;53.400;7.608;2023-04-01T05:31:46;99454.38;;;9.49;100.00
73267;BME280;61495;53.400;7.608;2023-04-01T05:34:13;99449.03;;;9.49;100.00
73267;BME280;61495;53.400;7.608;2023-04-01T05:36:38;99447.41;;;9.48;100.00
73267;BME280;61495;53.400;7.608;2023-04-01T05:39:04;99450.66;;;9.50;100.00
73267;BME280;61495;53.400;7.608;2023-04-01T05:41:29;99456.00;;;9.50;100.00
73267;BME280;61495;53.400;7.608;2023-04-01T05:43:54;99466.13;;;9.48;100.00
73267;BME280;61495;53.400;7.608;2023-04-01T05:46:20;99463.44;;;9.48;100.00
73267;BME280;61495;53.400;7.608;2023-04-01T05:48:46;99469.59;;;9.49;100.00
73267;BME280;61495;53.400;7.608;2023-04-01T05:51:13;99468.78;;;9.48;100.00
73267;BME280;61495;53.400;7.608;2023-04-01T05:53:38;99466.69;;;9.50;100.00
73267;BME280;61495;53.400;7.608;2023-04-01T05:56:04;99472.03;;;9.50;100.00
73267;BME280;61495;53.400;7.608;2023-04-01T05:58:30;99470.44;;;9.49;100.00
73267;BME280;61495;53.400;7.608;2023-04-01T06:01:09;99480.66;;;9.53;100.00
73267;BME280;61495;53.400;7.608;2023-04-01T06:03:35;99477.97;;;9.53;100.00
73267;BME280;61495;53.400;7.608;2023-04-01T06:06:01;99486.31;;;9.56;100.00
73267;BME280;61495;53.400;7.608;2023-04-01T06:08:28;99478.56;;;9.55;100.00
73267;BME280;61495;53.400;7.608;2023-04-01T06:11:29;99486.00;;;9.53;100.00
73267;BME280;61495;53.400;7.608;2023-04-01T06:14:30;99489.25;;;9.55;100.00
73267;BME280;61495;53.400;7.608;2023-04-01T06:19:51;99498.31;;;9.54;100.00
73267;BME280;61495;53.400;7.608;2023-04-01T06:30:47;99508.53;;;9.57;100.00
73267;BME280;61495;53.400;7.608;2023-04-01T06:33:40;99512.84;;;9.58;100.00
73267;BME280;61495;53.400;7.608;2023-04-01T06:36:14;99513.41;;;9.60;100.00
73267;BME280;61495;53.400;7.608;2023-04-01T06:53:12;99542.16;;;9.64;100.00
73267;BME280;61495;53.400;7.608;2023-04-01T06:56:00;99542.97;;;9.65;100.00
73267;BME280;61495;53.400;7.608;2023-04-01T06:58:51;99539.22;;;9.66;100.00
73267;BME280;61495;53.400;7.608;2023-04-01T07:01:38;99539.81;;;9.68;100.00
73267;BME280;61495;53.400;7.608;2023-04-01T07:04:11;99548.63;;;9.68;100.00
73267;BME280;61495;53.400;7.608;2023-04-01T07:07:03;99546.09;;;9.73;100.00
73267;BME280;61495;53.400;7.608;2023-04-01T07:09:32;99551.19;;;9.75;100.00
73267;BME280;61495;53.400;7.608;2023-04-01T07:12:00;99559.22;;;9.75;100.00
73267;BME280;61495;53.400;7.608;2023-04-01T07:14:33;99550.97;;;9.76;100.00
73267;BME280;61495;53.400;7.608;2023-04-01T07:17:21;99561.22;;;9.79;100.00
73267;BME280;61495;53.400;7.608;2023-04-01T07:19:52;99570.63;;;9.82;100.00
73267;BME280;61495;53.400;7.608;2023-04-01T07:24:57;99576.44;;;9.79;100.00
73267;BME280;61495;53.400;7.608;2023-04-01T07:27:26;99584.00;;;9.82;100.00
73267;BME280;61495;53.400;7.608;2023-04-01T07:29:52;99590.50;;;9.86;100.00
73267;BME280;61495;53.400;7.608;2023-04-01T07:32:23;99580.88;;;9.85;100.00
73267;BME280;61495;53.400;7.608;2023-04-01T07:35:13;99593.78;;;9.88;100.00
73267;BME280;61495;53.400;7.608;2023-04-01T07:37:45;99589.47;;;9.87;100.00
73267;BME280;61495;53.400;7.608;2023-04-01T07:48:45;99629.38;;;9.88;100.00
73267;BME280;61495;53.400;7.608;2023-04-01T07:59:06;99643.00;;;9.45;100.00
73267;BME280;61495;53.400;7.608;2023-04-01T08:04:17;99658.19;;;9.33;100.00
73267;BME280;61495;53.400;7.608;2023-04-01T08:07:01;99658.66;;;9.30;100.00
73267;BME280;61495;53.400;7.608;2023-04-01T08:12:42;99679.88;;;9.14;100.00
73267;BME280;61495;53.400;7.608;2023-04-01T08:18:10;99684.34;;;9.02;100.00
73267;BME280;61495;53.400;7.608;2023-04-01T08:20:59;99707.44;;;8.96;100.00
73267;BME280;61495;53.400;7.608;2023-04-01T08:23:28;99693.47;;;8.94;100.00
73267;BME280;61495;53.400;7.608;2023-04-01T08:28:35;99700.97;;;8.85;100.00
73267;BME280;61495;53.400;7.608;2023-04-01T08:34:20;99708.25;;;8.78;100.00
73267;BME280;61495;53.400;7.608;2023-04-01T08:36:53;99727.41;;;8.75;100.00
73267;BME280;61495;53.400;7.608;2023-04-01T08:39:32;99722.25;;;8.74;100.00
73267;BME280;61495;53.400;7.608;2023-04-01T08:42:41;99736.66;;;8.73;100.00
73267;BME280;61495;53.400;7.608;2023-04-01T08:50:38;99746.16;;;8.69;100.00
73267;BME280;61495;53.400;7.608;2023-04-01T08:58:46;99761.84;;;8.59;100.00
73267;BME280;61495;53.400;7.608;2023-04-01T09:12:06;99769.72;;;8.54;100.00
73267;BME280;61495;53.400;7.608;2023-04-01T09:14:46;99789.41;;;8.53;100.00
73267;BME280;61495;53.400;7.608;2023-04-01T09:17:36;99782.47;;;8.52;100.00
73267;BME280;61495;53.400;7.608;2023-04-01T09:20:32;99786.75;;;8.53;100.00
73267;BME280;61495;53.400;7.608;2023-04-01T09:29:16;99806.50;;;8.52;100.00
73267;BME280;61495;53.400;7.608;2023-04-01T09:37:21;99805.22;;;8.54;100.00
73267;BME280;61495;53.400;7.608;2023-04-01T09:40:09;99824.41;;;8.45;100.00
73267;BME280;61495;53.400;7.608;2023-04-01T09:48:50;99841.72;;;8.35;100.00
73267;BME280;61495;53.400;7.608;2023-04-01T10:00:09;99863.06;;;8.35;100.00
73267;BME280;61495;53.400;7.608;2023-04-01T10:11:11;99863.16;;;8.22;100.00
73267;BME280;61495;53.400;7.608;2023-04-01T10:22:04;99883.00;;;8.26;100.00
73267;BME280;61495;53.400;7.608;2023-04-01T10:41:22;99920.19;;;8.21;100.00
73267;BME280;61495;53.400;7.608;2023-04-01T10:54:40;99922.69;;;8.16;100.00
73267;BME280;61495;53.400;7.608;2023-04-01T11:25:48;99979.66;;;8.35;100.00
73267;BME280;61495;53.400;7.608;2023-04-01T11:44:28;100001.88;;;8.29;98.63
73267;BME280;61495;53.400;7.608;2023-04-01T11:49:55;100022.75;;;8.38;99.06
73267;BME280;61495;53.400;7.608;2023-04-01T11:55:14;100018.28;;;8.32;97.85
73267;BME280;61495;53.400;7.608;2023-04-01T11:57:59;100033.44;;;8.38;97.69
73267;BME280;61495;53.400;7.608;2023-04-01T12:03:41;100055.22;;;8.35;97.89
73267;BME280;61495;53.400;7.608;2023-04-01T12:06:20;100045.13;;;8.37;98.33
73267;BME280;61495;53.400;7.608;2023-04-01T12:08:58;100060.72;;;8.41;97.86
73267;BME280;61495;53.400;7.608;2023-04-01T12:14:11;100073.66;;;8.44;97.74
73267;BME280;61495;53.400;7.608;2023-04-01T12:19:35;100081.22;;;8.47;96.80
73267;BME280;61495;53.400;7.608;2023-04-01T12:27:45;100093.38;;;8.49;96.45
73267;BME280;61495;53.400;7.608;2023-04-01T12:35:46;100108.16;;;8.45;96.70
73267;BME280;61495;53.400;7.608;2023-04-01T12:38:43;100105.31;;;8.40;95.57
73267;BME280;61495;53.400;7.608;2023-04-01T12:41:52;100103.63;;;8.46;96.34
73267;BME280;61495;53.400;7.608;2023-04-01T12:47:15;100112.25;;;8.41;95.37
73267;BME280;61495;53.400;7.608;2023-04-01T12:50:14;100126.66;;;8.40;94.79
73267;BME280;61495;53.400;7.608;2023-04-01T12:55:34;100152.13;;;8.29;94.80
73267;BME280;61495;53.400;7.608;2023-04-01T13:20:28;100192.53;;;8.20;95.83
73267;BME280;61495;53.400;7.608;2023-04-01T13:23:24;100193.59;;;8.19;95.88
73267;BME280;61495;53.400;7.608;2023-04-01T13:29:04;100195.84;;;8.09;95.25
73267;BME280;61495;53.400;7.608;2023-04-01T13:40:02;100217.38;;;8.14;94.48
73267;BME280;61495;53.400;7.608;2023-04-01T13:42:31;100216.56;;;8.07;94.49
73267;BME280;61495;53.400;7.608;2023-04-01T13:50:16;100225.81;;;8.04;94.66
73267;BME280;61495;53.400;7.608;2023-04-01T13:55:25;100246.13;;;7.99;94.25
73267;BME280;61495;53.400;7.608;2023-04-01T14:03:37;100269.50;;;7.97;94.86
73267;BME280;61495;53.400;7.608;2023-04-01T14:09:20;100268.69;;;7.83;93.82
73267;BME280;61495;53.400;7.608;2023-04-01T14:17:33;100276.47;;;7.84;95.02
73267;BME280;61495;53.400;7.608;2023-04-01T14:20:39;100294.69;;;7.81;95.11
73267;BME280;61495;53.400;7.608;2023-04-01T14:29:23;100297.75;;;7.65;94.17
73267;BME280;61495;53.400;7.608;2023-04-01T14:31:58;100309.66;;;7.62;94.77
73267;BME280;61495;53.400;7.608;2023-04-01T14:37:06;100327.69;;;7.67;95.42
73267;BME280;61495;53.400;7.608;2023-04-01T14:40:00;100325.22;;;7.59;95.42
73267;BME280;61495;53.400;7.608;2023-04-01T14:48:32;100349.31;;;7.38;94.81
73267;BME280;61495;53.400;7.608;2023-04-01T14:54:04;100341.84;;;7.20;95.12
73267;BME280;61495;53.400;7.608;2023-04-01T14:56:42;100367.28;;;7.22;95.13
73267;BME280;61495;53.400;7.608;2023-04-01T14:59:27;100353.72;;;7.17;95.47
73267;BME280;61495;53.400;7.608;2023-04-01T15:04:46;100372.53;;;7.09;95.32
73267;BME280;61495;53.400;7.608;2023-04-01T15:10:42;100386.47;;;7.11;95.50
73267;BME280;61495;53.400;7.608;2023-04-01T15:16:21;100403.03;;;7.07;96.49
73267;BME280;61495;53.400;7.608;2023-04-01T15:19:18;100407.50;;;7.00;96.07
73267;BME280;61495;53.400;7.608;2023-04-01T15:22:15;100398.59;;;6.86;95.86
73267;BME280;61495;53.400;7.608;2023-04-01T15:28:06;100427.88;;;6.86;95.56
73267;BME280;61495;53.400;7.608;2023-04-01T15:33:07;100451.34;;;6.76;95.40
73267;BME280;61495;53.400;7.608;2023-04-01T15:35:46;100442.31;;;6.70;95.50
73267;BME280;61495;53.400;7.608;2023-04-01T15:38:39;100488.09;;;6.66;95.49
73267;BME280;61495;53.400;7.608;2023-04-01T15:41:28;100461.69;;;6.64;95.75
73267;BME280;61495;53.400;7.608;2023-04-01T15:44:00;100466.19;;;6.64;95.87
73267;BME280;61495;53.400;7.608;2023-04-01T15:46:47;100474.63;;;6.67;95.65
73267;BME280;61495;53.400;7.608;2023-04-01T15:52:22;100480.63;;;6.55;95.15
73267;BME280;61495;53.400;7.608;2023-04-01T16:13:55;100530.88;;;6.43;94.45
73267;BME280;61495;53.400;7.608;2023-04-01T16:16:53;100526.16;;;6.45;94.27
73267;BME280;61495;53.400;7.608;2023-04-01T16:22:14;100533.06;;;6.40;94.26
73267;BME280;61495;53.400;7.608;2023-04-01T16:24:53;100530.41;;;6.40;94.86
73267;BME280;61495;53.400;7.608;2023-04-01T16:27:29;100535.34;;;6.43;94.63
73267;BME280;61495;53.400;7.608;2023-04-01T16:30:33;100556.38;;;6.38;94.27
73267;BME280;61495;53.400;7.608;2023-04-01T16:35:48;100561.78;;;6.30;94.67
73267;BME280;61495;53.400;7.608;2023-04-01T16:41:38;100573.72;;;6.34;94.61
73267;BME280;61495;53.400;7.608;2023-04-01T16:43:41;100579.03;;;6.34;94.39
73267;BME280;61495;53.400;7.608;2023-04-01T16:54:28;100606.75;;;6.25;94.73
73267;BME280;61495;53.400;7.608;2023-04-01T16:59:43;100615.31;;;6.20;94.51
73267;BME280;61495;53.400;7.608;2023-04-01T17:02:14;100629.03;;;6.24;94.70
73267;BME280;61495;53.400;7.608;2023-04-01T17:05:01;100630.16;;;6.14;94.49
73267;BME280;61495;53.400;7.608;2023-04-01T17:35:52;100704.13;;;5.96;93.98
73267;BME280;61495;53.400;7.608;2023-04-01T17:38:45;100724.09;;;5.92;93.84
73267;BME280;61495;53.400;7.608;2023-04-01T17:52:11;100748.44;;;5.81;94.16
73267;BME280;61495;53.400;7.608;2023-04-01T17:57:54;100755.16;;;5.69;93.76
73267;BME280;61495;53.400;7.608;2023-04-01T18:00:36;100763.28;;;5.68;93.99
73267;BME280;61495;53.400;7.608;2023-04-01T18:08:40;100794.25;;;5.60;93.79
73267;BME280;61495;53.400;7.608;2023-04-01T18:17:03;100811.38;;;5.58;93.95
73267;BME280;61495;53.400;7.608;2023-04-01T18:19:52;100819.03;;;5.53;93.86
73267;BME280;61495;53.400;7.608;2023-04-01T18:22:41;100838.31;;;5.55;93.92
73267;BME280;61495;53.400;7.608;2023-04-01T18:30:40;100849.00;;;5.39;93.52
73267;BME280;61495;53.400;7.608;2023-04-01T18:36:19;100856.81;;;5.32;93.25
73267;BME280;61495;53.400;7.608;2023-04-01T18:39:00;100862.31;;;5.31;93.69
73267;BME280;61495;53.400;7.608;2023-04-01T18:41:48;100873.94;;;5.30;93.65
73267;BME280;61495;53.400;7.608;2023-04-01T18:47:08;100883.56;;;5.31;93.81
73267;BME280;61495;53.400;7.608;2023-04-01T18:52:45;100910.81;;;5.25;93.64
73267;BME280;61495;53.400;7.608;2023-04-01T18:57:50;100932.72;;;5.19;93.12
73267;BME280;61495;53.400;7.608;2023-04-01T19:01:08;100919.47;;;5.11;92.86
73267;BME280;61495;53.400;7.608;2023-04-01T19:03:41;100929.09;;;5.12;92.72
73267;BME280;61495;53.400;7.608;2023-04-01T19:06:23;100934.41;;;5.12;92.91
73267;BME280;61495;53.400;7.608;2023-04-01T19:08:51;100941.38;;;5.13;93.31
73267;BME280;61495;53.400;7.608;2023-04-01T19:11:26;100945.03;;;5.03;92.75
73267;BME280;61495;53.400;7.608;2023-04-01T19:24:45;100976.72;;;4.97;92.72
73267;BME280;61495;53.400;7.608;2023-04-01T19:27:36;100983.72;;;4.98;92.76
73267;BME280;61495;53.400;7.608;2023-04-01T19:38:31;100984.19;;;4.93;92.08
73267;BME280;61495;53.400;7.608;2023-04-01T19:41:15;101011.06;;;4.90;92.11
73267;BME280;61495;53.400;7.608;2023-04-01T19:46:43;101021.88;;;4.89;91.67
73267;BME280;61495;53.400;7.608;2023-04-01T19:57:04;101030.63;;;4.81;91.46
73267;BME280;61495;53.400;7.608;2023-04-01T19:59:36;101039.94;;;4.77;91.24
73267;BME280;61495;53.400;7.608;2023-04-01T20:02:40;101054.19;;;4.76;90.97
73267;BME280;61495;53.400;7.608;2023-04-01T20:08:17;101051.41;;;4.78;91.34
73267;BME280;61495;53.400;7.608;2023-04-01T20:11:10;101075.44;;;4.76;91.30
73267;BME280;61495;53.400;7.608;2023-04-01T20:14:05;101086.38;;;4.73;91.17
73267;BME280;61495;53.400;7.608;2023-04-01T20:16:53;101078.59;;;4.72;91.55
73267;BME280;61495;53.400;7.608;2023-04-01T20:19:45;101095.31;;;4.64;91.20
73267;BME280;61495;53.400;7.608;2023-04-01T20:22:24;101096.47;;;4.62;90.49
73267;BME280;61495;53.400;7.608;2023-04-01T20:24:58;101096.31;;;4.63;91.22
73267;BME280;61495;53.400;7.608;2023-04-01T20:27:32;101102.75;;;4.61;90.65
73267;BME280;61495;53.400;7.608;2023-04-01T20:33:00;101112.88;;;4.57;90.98
73267;BME280;61495;53.400;7.608;2023-04-01T20:35:50;101116.19;;;4.59;90.58
73267;BME280;61495;53.400;7.608;2023-04-01T20:49:39;101162.88;;;4.44;90.26
73267;BME280;61495;53.400;7.608;2023-04-01T20:57:14;101171.81;;;4.43;90.21
73267;BME280;61495;53.400;7.608;2023-04-01T21:02:53;101202.56;;;4.28;87.80
73267;BME280;61495;53.400;7.608;2023-04-01T21:05:51;101185.16;;;4.25;87.60
73267;BME280;61495;53.400;7.608;2023-04-01T21:22:40;101211.44;;;4.11;88.14
73267;BME280;61495;53.400;7.608;2023-04-01T21:25:47;101228.69;;;4.15;87.68
73267;BME280;61495;53.400;7.608;2023-04-01T21:28:32;101224.09;;;3.99;87.88
73267;BME280;61495;53.400;7.608;2023-04-01T21:34:07;101240.53;;;4.03;88.55
73267;BME280;61495;53.400;7.608;2023-04-01T21:36:51;101245.84;;;4.03;87.98
73267;BME280;61495;53.400;7.608;2023-04-01T21:42:19;101249.94;;;3.97;87.69
73267;BME280;61495;53.400;7.608;2023-04-01T21:44:55;101261.69;;;3.95;87.92
73267;BME280;61495;53.400;7.608;2023-04-01T21:50:09;101267.28;;;3.91;87.71
73267;BME280;61495;53.400;7.608;2023-04-01T22:03:55;101289.47;;;3.73;87.79
73267;BME280;61495;53.400;7.608;2023-04-01T22:09:31;101308.88;;;3.73;87.31
73267;BME280;61495;53.400;7.608;2023-04-01T22:12:17;101306.13;;;3.65;87.14
73267;BME280;61495;53.400;7.608;2023-04-01T22:15:20;101307.56;;;3.60;87.11
73267;BME280;61495;53.400;7.608;2023-04-01T22:18:08;101321.25;;;3.55;87.27
73267;BME280;61495;53.400;7.608;2023-04-01T22:24:03;101327.44;;;3.46;87.17
73267;BME280;61495;53.400;7.608;2023-04-01T22:26:32;101352.97;;;3.47;87.63
73267;BME280;61495;53.400;7.608;2023-04-01T22:29:15;101341.97;;;3.42;87.52
73267;BME280;61495;53.400;7.608;2023-04-01T22:32:03;101343.97;;;3.30;87.87
73267;BME280;61495;53.400;7.608;2023-04-01T22:34:42;101358.44;;;3.36;87.60
73267;BME280;61495;53.400;7.608;2023-04-01T22:37:40;101358.72;;;3.33;87.64